sensor_id;sensor_type;location;lat;lon;timestamp;pressure;altitude;pressure_sealevel;temperature;humidity
54512;BME280;40419;47.438;19.026;2023-03-18T00:01:07;100322.78;;;3.17;53.11
54512;BME280;40419;47.438;19.026;2023-03-18T00:03:35;100330.94;;;3.16;53.67
54512;BME280;40419;47.438;19.026;2023-03-18T00:06:07;100327.94;;;3.29;54.06
54512;BME280;40419;47.438;19.026;2023-03-18T00:08:41;100324.03;;;3.13;53.73
54512;BME280;40419;47.438;19.026;2023-03-18T00:11:09;100315.72;;;3.26;53.35
54512;BME280;40419;47.438;19.026;2023-03-18T00:13:43;100315.88;;;3.25;53.31
54512;BME280;40419;47.438;19.026;2023-03-18T00:16:11;100313.34;;;3.23;53.06
54512;BME280;40419;47.438;19.026;2023-03-18T00:18:39;100310.97;;;3.10;53.28
54512;BME280;40419;47.438;19.026;2023-03-18T00:21:06;100306.59;;;3.09;52.77
54512;BME280;40419;47.438;19.026;2023-03-18T00:23:34;100310.25;;;3.08;53.29
54512;BME280;40419;47.438;19.026;2023-03-18T00:26:05;100301.91;;;3.31;53.02
54512;BME280;40419;47.438;19.026;2023-03-18T00:28:36;100300.22;;;3.20;52.26
54512;BME280;40419;47.438;19.026;2023-03-18T00:31:06;100290.38;;;3.21;53.04
54512;BME280;40419;47.438;19.026;2023-03-18T00:33:37;100299.09;;;3.32;51.34
54512;BME280;40419;47.438;19.026;2023-03-18T00:36:08;100300.41;;;3.09;52.51
54512;BME280;40419;47.438;19.026;2023-03-18T00:38:35;100299.00;;;3.05;53.58
54512;BME280;40419;47.438;19.026;2023-03-18T00:41:01;100297.88;;;2.97;52.34
54512;BME280;40419;47.438;19.026;2023-03-18T00:43:42;100299.56;;;2.98;52.99
54512;BME280;40419;47.438;19.026;2023-03-18T00:46:34;100296.75;;;3.00;53.52
54512;BME280;40419;47.438;19.026;2023-03-18T00:49:05;100293.38;;;2.98;53.69
54512;BME280;40419;47.438;19.026;2023-03-18T00:51:37;100293.09;;;3.01;53.53
54512;BME280;40419;47.438;19.026;2023-03-18T00:54:05;100292.25;;;3.00;53.40
54512;BME280;40419;47.438;19.026;2023-03-18T00:56:34;100296.88;;;2.98;53.48
54512;BME280;40419;47.438;19.026;2023-03-18T00:59:02;100296.34;;;2.95;54.36
54512;BME280;40419;47.438;19.026;2023-03-18T01:01:35;100289.44;;;3.02;53.91
54512;BME280;40419;47.438;19.026;2023-03-18T01:04:01;100283.66;;;2.97;52.92
54512;BME280;40419;47.438;19.026;2023-03-18T01:06:32;100286.91;;;2.91;54.66
54512;BME280;40419;47.438;19.026;2023-03-18T01:08:59;100284.69;;;2.66;55.49
54512;BME280;40419;47.438;19.026;2023-03-18T01:11:26;100275.38;;;2.71;56.42
54512;BME280;40419;47.438;19.026;2023-03-18T01:13:54;100274.38;;;2.72;55.87
54512;BME280;40419;47.438;19.026;2023-03-18T01:16:23;100271.16;;;2.68;55.82
54512;BME280;40419;47.438;19.026;2023-03-18T01:18:52;100266.38;;;2.72;56.07
54512;BME280;40419;47.438;19.026;2023-03-18T01:21:18;100275.94;;;2.84;54.04
54512;BME280;40419;47.438;19.026;2023-03-18T01:23:49;100265.81;;;2.78;54.43
54512;BME280;40419;47.438;19.026;2023-03-18T01:26:18;100265.25;;;2.74;54.62
54512;BME280;40419;47.438;19.026;2023-03-18T01:28:44;100270.16;;;2.89;53.91
54512;BME280;40419;47.438;19.026;2023-03-18T01:31:11;100261.84;;;2.82;55.31
54512;BME280;40419;47.438;19.026;2023-03-18T01:33:41;100258.19;;;2.73;55.79
54512;BME280;40419;47.438;19.026;2023-03-18T01:36:10;100251.59;;;2.77;55.93
54512;BME280;40419;47.438;19.026;2023-03-18T01:38:36;100258.38;;;2.62;57.39
54512;BME280;40419;47.438;19.026;2023-03-18T01:41:12;100250.59;;;2.69;55.62
54512;BME280;40419;47.438;19.026;2023-03-18T01:43:41;100256.53;;;2.72;55.32
54512;BME280;40419;47.438;19.026;2023-03-18T01:48:52;100249.19;;;2.84;55.13
54512;BME280;40419;47.438;19.026;2023-03-18T01:51:18;100251.31;;;2.90;53.73
54512;BME280;40419;47.438;19.026;2023-03-18T01:53:46;100248.63;;;2.80;53.53
54512;BME280;40419;47.438;19.026;2023-03-18T01:56:16;100246.34;;;2.95;52.62
54512;BME280;40419;47.438;19.026;2023-03-18T01:58:44;100248.03;;;2.96;54.01
54512;BME280;40419;47.438;19.026;2023-03-18T02:01:25;100242.41;;;2.90;53.67
54512;BME280;40419;47.438;19.026;2023-03-18T02:03:55;100248.16;;;3.05;52.81
54512;BME280;40419;47.438;19.026;2023-03-18T02:06:24;100247.75;;;2.99;52.93
54512;BME280;40419;47.438;19.026;2023-03-18T02:08:57;100247.63;;;2.91;53.04
54512;BME280;40419;47.438;19.026;2023-03-18T02:11:26;100244.66;;;2.94;54.29
54512;BME280;40419;47.438;19.026;2023-03-18T02:13:58;100242.88;;;2.75;54.82
54512;BME280;40419;47.438;19.026;2023-03-18T02:16:31;100245.53;;;2.85;53.58
54512;BME280;40419;47.438;19.026;2023-03-18T02:19:08;100242.16;;;2.83;54.26
54512;BME280;40419;47.438;19.026;2023-03-18T02:24:59;100237.25;;;2.78;55.59
54512;BME280;40419;47.438;19.026;2023-03-18T02:27:36;100239.78;;;2.70;56.86
54512;BME280;40419;47.438;19.026;2023-03-18T02:30:10;100236.16;;;2.61;56.48
54512;BME280;40419;47.438;19.026;2023-03-18T02:32:38;100242.19;;;2.54;56.63
54512;BME280;40419;47.438;19.026;2023-03-18T02:35:09;100244.03;;;2.63;54.54
54512;BME280;40419;47.438;19.026;2023-03-18T02:37:41;100239.22;;;2.66;54.53
54512;BME280;40419;47.438;19.026;2023-03-18T02:40:18;100243.00;;;2.64;56.01
54512;BME280;40419;47.438;19.026;2023-03-18T02:42:46;100238.66;;;2.63;54.29
54512;BME280;40419;47.438;19.026;2023-03-18T02:45:41;100236.72;;;2.55;55.93
54512;BME280;40419;47.438;19.026;2023-03-18T02:48:15;100245.25;;;2.49;57.71
54512;BME280;40419;47.438;19.026;2023-03-18T02:50:42;100242.31;;;2.42;57.30
54512;BME280;40419;47.438;19.026;2023-03-18T02:53:11;100243.16;;;2.43;56.72
54512;BME280;40419;47.438;19.026;2023-03-18T02:55:37;100237.41;;;2.38;57.65
54512;BME280;40419;47.438;19.026;2023-03-18T02:58:08;100236.56;;;2.37;56.65
54512;BME280;40419;47.438;19.026;2023-03-18T03:00:35;100248.66;;;2.41;56.30
54512;BME280;40419;47.438;19.026;2023-03-18T03:03:03;100244.00;;;2.34;57.15
54512;BME280;40419;47.438;19.026;2023-03-18T03:05:32;100247.97;;;2.29;56.64
54512;BME280;40419;47.438;19.026;2023-03-18T03:08:01;100247.25;;;2.18;58.29
54512;BME280;40419;47.438;19.026;2023-03-18T03:10:30;100246.66;;;2.04;58.53
54512;BME280;40419;47.438;19.026;2023-03-18T03:12:56;100234.72;;;2.18;57.24
54512;BME280;40419;47.438;19.026;2023-03-18T03:15:25;100243.03;;;2.15;57.14
54512;BME280;40419;47.438;19.026;2023-03-18T03:17:58;100243.00;;;2.25;56.21
54512;BME280;40419;47.438;19.026;2023-03-18T03:20:29;100243.84;;;2.16;55.82
54512;BME280;40419;47.438;19.026;2023-03-18T03:23:01;100244.44;;;2.19;56.93
54512;BME280;40419;47.438;19.026;2023-03-18T03:25:27;100244.84;;;2.24;55.77
54512;BME280;40419;47.438;19.026;2023-03-18T03:27:54;100246.25;;;2.09;57.13
54512;BME280;40419;47.438;19.026;2023-03-18T03:30:20;100245.97;;;2.12;57.83
54512;BME280;40419;47.438;19.026;2023-03-18T03:32:47;100248.59;;;2.02;59.67
54512;BME280;40419;47.438;19.026;2023-03-18T03:35:17;100254.22;;;1.99;58.15
54512;BME280;40419;47.438;19.026;2023-03-18T03:37:45;100256.63;;;1.92;59.53
54512;BME280;40419;47.438;19.026;2023-03-18T03:40:14;100262.53;;;1.96;59.00
54512;BME280;40419;47.438;19.026;2023-03-18T03:42:42;100261.13;;;2.02;57.23
54512;BME280;40419;47.438;19.026;2023-03-18T03:45:11;100263.25;;;1.98;58.14
54512;BME280;40419;47.438;19.026;2023-03-18T03:47:41;100260.72;;;1.97;58.63
54512;BME280;40419;47.438;19.026;2023-03-18T03:50:10;100265.78;;;2.09;56.25
54512;BME280;40419;47.438;19.026;2023-03-18T03:52:41;100269.41;;;1.99;59.36
54512;BME280;40419;47.438;19.026;2023-03-18T03:55:13;100266.75;;;1.89;60.18
54512;BME280;40419;47.438;19.026;2023-03-18T03:57:39;100263.47;;;1.85;59.73
54512;BME280;40419;47.438;19.026;2023-03-18T04:00:08;100268.00;;;1.85;58.39
54512;BME280;40419;47.438;19.026;2023-03-18T04:02:44;100254.38;;;1.88;60.16
54512;BME280;40419;47.438;19.026;2023-03-18T04:05:13;100267.16;;;1.94;59.76
54512;BME280;40419;47.438;19.026;2023-03-18T04:07:40;100275.88;;;1.86;61.65
54512;BME280;40419;47.438;19.026;2023-03-18T04:10:11;100259.38;;;1.81;60.45
54512;BME280;40419;47.438;19.026;2023-03-18T04:12:38;100264.31;;;1.76;61.78
54512;BME280;40419;47.438;19.026;2023-03-18T04:15:08;100265.19;;;1.86;60.18
54512;BME280;40419;47.438;19.026;2023-03-18T04:17:35;100265.88;;;1.88;60.14
54512;BME280;40419;47.438;19.026;2023-03-18T04:20:01;100260.63;;;1.67;61.13
54512;BME280;40419;47.438;19.026;2023-03-18T04:22:33;100270.78;;;1.83;59.40
54512;BME280;40419;47.438;19.026;2023-03-18T04:25:01;100267.72;;;1.98;59.77
54512;BME280;40419;47.438;19.026;2023-03-18T04:27:29;100274.88;;;1.87;60.88
54512;BME280;40419;47.438;19.026;2023-03-18T04:29:57;100276.69;;;1.87;61.29
54512;BME280;40419;47.438;19.026;2023-03-18T04:32:30;100272.09;;;1.89;61.15
54512;BME280;40419;47.438;19.026;2023-03-18T04:34:58;100273.06;;;1.88;60.21
54512;BME280;40419;47.438;19.026;2023-03-18T04:37:24;100275.59;;;1.99;59.63
54512;BME280;40419;47.438;19.026;2023-03-18T04:39:54;100277.16;;;1.92;59.72
54512;BME280;40419;47.438;19.026;2023-03-18T04:42:20;100275.88;;;1.86;61.97
54512;BME280;40419;47.438;19.026;2023-03-18T04:44:48;100278.22;;;1.80;62.11
54512;BME280;40419;47.438;19.026;2023-03-18T04:47:16;100278.41;;;1.88;62.20
54512;BME280;40419;47.438;19.026;2023-03-18T04:49:44;100288.38;;;1.95;60.64
54512;BME280;40419;47.438;19.026;2023-03-18T04:52:13;100291.59;;;1.89;60.14
54512;BME280;40419;47.438;19.026;2023-03-18T04:54:39;100292.44;;;1.90;60.12
54512;BME280;40419;47.438;19.026;2023-03-18T04:57:07;100289.84;;;2.19;59.36
54512;BME280;40419;47.438;19.026;2023-03-18T04:59:37;100290.97;;;2.26;60.56
54512;BME280;40419;47.438;19.026;2023-03-18T05:02:09;100294.91;;;2.22;59.89
54512;BME280;40419;47.438;19.026;2023-03-18T05:04:37;100294.19;;;2.20;60.65
54512;BME280;40419;47.438;19.026;2023-03-18T05:07:03;100295.06;;;2.30;60.31
54512;BME280;40419;47.438;19.026;2023-03-18T05:09:37;100302.09;;;2.41;59.51
54512;BME280;40419;47.438;19.026;2023-03-18T05:12:05;100305.66;;;2.61;59.07
54512;BME280;40419;47.438;19.026;2023-03-18T05:14:36;100301.13;;;2.62;58.59
54512;BME280;40419;47.438;19.026;2023-03-18T05:17:02;100308.75;;;2.57;59.18
54512;BME280;40419;47.438;19.026;2023-03-18T05:19:33;100292.72;;;2.76;58.95
54512;BME280;40419;47.438;19.026;2023-03-18T05:22:19;100301.53;;;2.87;58.94
54512;BME280;40419;47.438;19.026;2023-03-18T05:24:51;100307.03;;;2.85;58.58
54512;BME280;40419;47.438;19.026;2023-03-18T05:27:18;100305.66;;;2.81;59.02
54512;BME280;40419;47.438;19.026;2023-03-18T05:29:52;100310.84;;;3.02;59.52
54512;BME280;40419;47.438;19.026;2023-03-18T05:32:24;100307.31;;;2.82;59.12
54512;BME280;40419;47.438;19.026;2023-03-18T05:34:57;100313.94;;;2.68;59.52
54512;BME280;40419;47.438;19.026;2023-03-18T05:37:23;100314.22;;;2.65;59.85
54512;BME280;40419;47.438;19.026;2023-03-18T05:39:57;100322.38;;;2.73;59.00
54512;BME280;40419;47.438;19.026;2023-03-18T05:42:23;100303.22;;;2.97;58.41
54512;BME280;40419;47.438;19.026;2023-03-18T05:44:50;100316.03;;;3.13;57.19
54512;BME280;40419;47.438;19.026;2023-03-18T05:47:21;100318.28;;;3.08;57.83
54512;BME280;40419;47.438;19.026;2023-03-18T05:50:07;100321.81;;;3.09;58.46
54512;BME280;40419;47.438;19.026;2023-03-18T05:52:37;100313.91;;;3.07;58.10
54512;BME280;40419;47.438;19.026;2023-03-18T05:55:15;100336.59;;;2.93;60.20
54512;BME280;40419;47.438;19.026;2023-03-18T05:57:44;100320.25;;;3.16;59.07
54512;BME280;40419;47.438;19.026;2023-03-18T06:00:13;100333.88;;;3.23;58.22
54512;BME280;40419;47.438;19.026;2023-03-18T06:02:47;100325.72;;;3.24;58.88
54512;BME280;40419;47.438;19.026;2023-03-18T06:05:15;100338.84;;;3.08;58.49
54512;BME280;40419;47.438;19.026;2023-03-18T06:07:40;100330.81;;;3.08;58.18
54512;BME280;40419;47.438;19.026;2023-03-18T06:10:07;100335.84;;;3.30;59.31
54512;BME280;40419;47.438;19.026;2023-03-18T06:12:37;100330.47;;;3.40;58.41
54512;BME280;40419;47.438;19.026;2023-03-18T06:15:03;100338.53;;;3.21;57.67
54512;BME280;40419;47.438;19.026;2023-03-18T06:17:33;100342.06;;;3.31;60.46
54512;BME280;40419;47.438;19.026;2023-03-18T06:20:04;100340.28;;;3.59;58.10
54512;BME280;40419;47.438;19.026;2023-03-18T06:22:34;100347.00;;;3.16;58.02
54512;BME280;40419;47.438;19.026;2023-03-18T06:25:00;100337.56;;;3.12;59.16
54512;BME280;40419;47.438;19.026;2023-03-18T06:27:29;100346.31;;;2.94;58.82
54512;BME280;40419;47.438;19.026;2023-03-18T06:29:58;100339.44;;;2.92;59.99
54512;BME280;40419;47.438;19.026;2023-03-18T06:32:31;100342.63;;;3.15;60.65
54512;BME280;40419;47.438;19.026;2023-03-18T06:34:59;100347.00;;;2.87;59.63
54512;BME280;40419;47.438;19.026;2023-03-18T06:37:29;100349.56;;;2.98;60.56
54512;BME280;40419;47.438;19.026;2023-03-18T06:39:57;100362.34;;;2.94;59.78
54512;BME280;40419;47.438;19.026;2023-03-18T06:42:23;100351.06;;;3.30;58.76
54512;BME280;40419;47.438;19.026;2023-03-18T06:45:01;100351.22;;;3.09;59.35
54512;BME280;40419;47.438;19.026;2023-03-18T06:47:39;100358.44;;;3.08;59.46
54512;BME280;40419;47.438;19.026;2023-03-18T06:50:05;100356.16;;;2.94;60.08
54512;BME280;40419;47.438;19.026;2023-03-18T06:52:36;100371.22;;;3.05;58.99
54512;BME280;40419;47.438;19.026;2023-03-18T06:55:09;100367.16;;;3.00;60.07
54512;BME280;40419;47.438;19.026;2023-03-18T06:57:43;100371.94;;;3.16;60.27
54512;BME280;40419;47.438;19.026;2023-03-18T07:00:12;100370.19;;;3.45;59.08
54512;BME280;40419;47.438;19.026;2023-03-18T07:02:40;100364.69;;;3.46;58.07
54512;BME280;40419;47.438;19.026;2023-03-18T07:05:09;100373.53;;;3.66;57.90
54512;BME280;40419;47.438;19.026;2023-03-18T07:07:35;100372.41;;;3.69;58.52
54512;BME280;40419;47.438;19.026;2023-03-18T07:10:08;100373.50;;;3.76;58.36
54512;BME280;40419;47.438;19.026;2023-03-18T07:12:37;100372.31;;;3.88;56.66
54512;BME280;40419;47.438;19.026;2023-03-18T07:15:05;100365.09;;;3.99;57.59
54512;BME280;40419;47.438;19.026;2023-03-18T07:17:34;100376.28;;;3.84;56.90
54512;BME280;40419;47.438;19.026;2023-03-18T07:19:59;100368.13;;;4.14;57.03
54512;BME280;40419;47.438;19.026;2023-03-18T07:22:27;100371.47;;;4.43;55.62
54512;BME280;40419;47.438;19.026;2023-03-18T07:24:53;100369.75;;;4.52;57.47
54512;BME280;40419;47.438;19.026;2023-03-18T07:27:21;100376.19;;;4.59;56.83
54512;BME280;40419;47.438;19.026;2023-03-18T07:29:51;100374.47;;;4.86;55.52
54512;BME280;40419;47.438;19.026;2023-03-18T07:32:22;100374.91;;;4.82;56.42
54512;BME280;40419;47.438;19.026;2023-03-18T07:34:50;100376.72;;;5.17;54.76
54512;BME280;40419;47.438;19.026;2023-03-18T07:37:18;100381.28;;;4.99;53.34
54512;BME280;40419;47.438;19.026;2023-03-18T07:39:44;100376.91;;;4.97;55.00
54512;BME280;40419;47.438;19.026;2023-03-18T07:42:11;100377.72;;;5.16;54.40
54512;BME280;40419;47.438;19.026;2023-03-18T07:44:46;100387.84;;;5.22;53.22
54512;BME280;40419;47.438;19.026;2023-03-18T07:47:13;100383.00;;;5.44;54.02
54512;BME280;40419;47.438;19.026;2023-03-18T07:49:44;100388.91;;;5.29;53.81
54512;BME280;40419;47.438;19.026;2023-03-18T07:52:12;100395.78;;;5.76;53.81
54512;BME280;40419;47.438;19.026;2023-03-18T07:54:38;100392.03;;;5.69;53.83
54512;BME280;40419;47.438;19.026;2023-03-18T07:57:06;100389.63;;;5.84;51.96
54512;BME280;40419;47.438;19.026;2023-03-18T07:59:31;100395.53;;;5.88;52.25
54512;BME280;40419;47.438;19.026;2023-03-18T08:02:02;100393.28;;;6.01;52.39
54512;BME280;40419;47.438;19.026;2023-03-18T08:04:30;100386.47;;;6.23;52.25
54512;BME280;40419;47.438;19.026;2023-03-18T08:06:58;100390.06;;;6.32;50.91
54512;BME280;40419;47.438;19.026;2023-03-18T08:09:26;100387.59;;;6.55;50.80
54512;BME280;40419;47.438;19.026;2023-03-18T08:11:54;100389.16;;;6.66;51.13
54512;BME280;40419;47.438;19.026;2023-03-18T08:14:20;100382.63;;;6.77;50.66
54512;BME280;40419;47.438;19.026;2023-03-18T08:16:48;100378.91;;;6.69;50.28
54512;BME280;40419;47.438;19.026;2023-03-18T08:19:14;100380.28;;;6.98;49.48
54512;BME280;40419;47.438;19.026;2023-03-18T08:21:42;100378.13;;;7.10;49.49
54512;BME280;40419;47.438;19.026;2023-03-18T08:24:08;100380.28;;;7.39;50.51
54512;BME280;40419;47.438;19.026;2023-03-18T08:26:38;100380.63;;;7.36;49.67
54512;BME280;40419;47.438;19.026;2023-03-18T08:29:11;100377.91;;;7.69;49.07
54512;BME280;40419;47.438;19.026;2023-03-18T08:31:38;100382.47;;;7.69;48.49
54512;BME280;40419;47.438;19.026;2023-03-18T08:34:04;100381.41;;;7.86;48.61
54512;BME280;40419;47.438;19.026;2023-03-18T08:36:30;100371.84;;;7.59;47.86
54512;BME280;40419;47.438;19.026;2023-03-18T08:38:55;100375.53;;;7.74;48.19
54512;BME280;40419;47.438;19.026;2023-03-18T08:41:21;100383.25;;;7.77;48.73
54512;BME280;40419;47.438;19.026;2023-03-18T08:43:53;100369.97;;;7.76;48.41
54512;BME280;40419;47.438;19.026;2023-03-18T08:46:24;100369.97;;;7.84;47.79
54512;BME280;40419;47.438;19.026;2023-03-18T08:48:51;100373.63;;;7.99;47.24
54512;BME280;40419;47.438;19.026;2023-03-18T08:51:19;100367.75;;;7.96;47.69
54512;BME280;40419;47.438;19.026;2023-03-18T08:53:47;100373.06;;;8.12;47.25
54512;BME280;40419;47.438;19.026;2023-03-18T08:56:13;100373.31;;;8.34;46.61
54512;BME280;40419;47.438;19.026;2023-03-18T08:58:42;100364.66;;;8.47;45.97
54512;BME280;40419;47.438;19.026;2023-03-18T09:01:10;100364.50;;;8.40;45.88
54512;BME280;40419;47.438;19.026;2023-03-18T09:03:36;100369.44;;;8.68;45.96
54512;BME280;40419;47.438;19.026;2023-03-18T09:06:04;100370.56;;;8.50;45.57
54512;BME280;40419;47.438;19.026;2023-03-18T09:08:32;100364.66;;;8.78;46.24
54512;BME280;40419;47.438;19.026;2023-03-18T09:10:58;100375.78;;;8.83;45.76
54512;BME280;40419;47.438;19.026;2023-03-18T09:13:26;100360.66;;;8.74;45.25
54512;BME280;40419;47.438;19.026;2023-03-18T09:15:57;100357.16;;;8.65;43.94
54512;BME280;40419;47.438;19.026;2023-03-18T09:18:27;100356.19;;;8.81;45.08
54512;BME280;40419;47.438;19.026;2023-03-18T09:20:53;100357.59;;;9.00;44.37
54512;BME280;40419;47.438;19.026;2023-03-18T09:23:19;100357.16;;;9.12;44.68
54512;BME280;40419;47.438;19.026;2023-03-18T09:25:45;100365.34;;;9.03;44.59
54512;BME280;40419;47.438;19.026;2023-03-18T09:28:14;100356.09;;;9.21;44.16
54512;BME280;40419;47.438;19.026;2023-03-18T09:30:41;100359.72;;;9.28;43.99
54512;BME280;40419;47.438;19.026;2023-03-18T09:33:07;100350.19;;;9.40;44.05
54512;BME280;40419;47.438;19.026;2023-03-18T09:35:33;100358.78;;;9.59;44.51
54512;BME280;40419;47.438;19.026;2023-03-18T09:37:59;100342.22;;;9.39;43.55
54512;BME280;40419;47.438;19.026;2023-03-18T09:40:29;100346.03;;;9.68;44.04
54512;BME280;40419;47.438;19.026;2023-03-18T09:45:51;100340.06;;;9.87;42.92
54512;BME280;40419;47.438;19.026;2023-03-18T09:51:52;100342.09;;;9.85;43.40
54512;BME280;40419;47.438;19.026;2023-03-18T09:54:34;100340.59;;;9.98;43.11
54512;BME280;40419;47.438;19.026;2023-03-18T09:57:04;100338.66;;;9.91;42.21
54512;BME280;40419;47.438;19.026;2023-03-18T09:59:42;100341.97;;;10.23;42.99
54512;BME280;40419;47.438;19.026;2023-03-18T10:02:24;100329.03;;;10.04;41.80
54512;BME280;40419;47.438;19.026;2023-03-18T10:04:58;100328.66;;;10.07;42.92
54512;BME280;40419;47.438;19.026;2023-03-18T10:07:33;100337.69;;;10.14;42.48
54512;BME280;40419;47.438;19.026;2023-03-18T10:10:05;100326.34;;;9.89;42.46
54512;BME280;40419;47.438;19.026;2023-03-18T10:12:45;100327.25;;;9.96;41.53
54512;BME280;40419;47.438;19.026;2023-03-18T10:20:27;100325.34;;;10.26;41.10
54512;BME280;40419;47.438;19.026;2023-03-18T10:23:20;100323.78;;;10.32;42.31
54512;BME280;40419;47.438;19.026;2023-03-18T10:25:58;100314.53;;;10.41;41.97
54512;BME280;40419;47.438;19.026;2023-03-18T10:28:44;100318.88;;;10.06;41.15
54512;BME280;40419;47.438;19.026;2023-03-18T10:34:51;100311.56;;;10.21;41.49
54512;BME280;40419;47.438;19.026;2023-03-18T10:40:17;100316.78;;;10.38;42.38
54512;BME280;40419;47.438;19.026;2023-03-18T10:42:44;100311.19;;;10.24;42.75
54512;BME280;40419;47.438;19.026;2023-03-18T10:45:21;100307.66;;;10.24;42.22
54512;BME280;40419;47.438;19.026;2023-03-18T10:48:02;100307.00;;;10.37;42.84
54512;BME280;40419;47.438;19.026;2023-03-18T10:50:32;100310.75;;;10.36;42.53
54512;BME280;40419;47.438;19.026;2023-03-18T10:53:15;100297.28;;;10.42;43.08
54512;BME280;40419;47.438;19.026;2023-03-18T10:58:28;100295.47;;;10.50;43.51
54512;BME280;40419;47.438;19.026;2023-03-18T11:00:54;100290.66;;;10.67;42.72
54512;BME280;40419;47.438;19.026;2023-03-18T11:03:25;100290.41;;;10.83;43.25
54512;BME280;40419;47.438;19.026;2023-03-18T11:05:56;100282.78;;;10.93;43.10
54512;BME280;40419;47.438;19.026;2023-03-18T11:11:12;100270.22;;;11.14;43.52
54512;BME280;40419;47.438;19.026;2023-03-18T11:13:45;100282.31;;;10.90;43.66
54512;BME280;40419;47.438;19.026;2023-03-18T11:18:51;100274.00;;;10.91;43.83
54512;BME280;40419;47.438;19.026;2023-03-18T11:21:19;100262.66;;;11.03;44.79
54512;BME280;40419;47.438;19.026;2023-03-18T11:23:52;100256.28;;;11.17;44.31
54512;BME280;40419;47.438;19.026;2023-03-18T11:26:51;100261.47;;;11.12;43.32
54512;BME280;40419;47.438;19.026;2023-03-18T11:29:21;100256.84;;;11.06;43.66
54512;BME280;40419;47.438;19.026;2023-03-18T11:31:55;100255.16;;;11.33;43.93
54512;BME280;40419;47.438;19.026;2023-03-18T11:34:27;100247.84;;;11.33;43.19
54512;BME280;40419;47.438;19.026;2023-03-18T11:36:57;100236.84;;;11.07;44.59
54512;BME280;40419;47.438;19.026;2023-03-18T11:39:27;100244.13;;;11.34;44.03
54512;BME280;40419;47.438;19.026;2023-03-18T11:41:53;100237.25;;;11.39;43.52
54512;BME280;40419;47.438;19.026;2023-03-18T11:44:37;100236.59;;;11.37;43.44
54512;BME280;40419;47.438;19.026;2023-03-18T11:47:10;100237.91;;;11.41;43.40
54512;BME280;40419;47.438;19.026;2023-03-18T11:49:40;100234.94;;;11.35;43.88
54512;BME280;40419;47.438;19.026;2023-03-18T12:06:32;100224.19;;;11.49;42.54
54512;BME280;40419;47.438;19.026;2023-03-18T12:17:13;100205.03;;;11.22;42.45
54512;BME280;40419;47.438;19.026;2023-03-18T12:19:58;100207.44;;;11.39;43.12
54512;BME280;40419;47.438;19.026;2023-03-18T12:22:42;100209.16;;;11.46;42.32
54512;BME280;40419;47.438;19.026;2023-03-18T12:28:02;100215.69;;;11.59;42.83
54512;BME280;40419;47.438;19.026;2023-03-18T12:41:39;100205.97;;;11.36;43.15
54512;BME280;40419;47.438;19.026;2023-03-18T12:47:05;100202.25;;;11.44;43.81
54512;BME280;40419;47.438;19.026;2023-03-18T12:49:52;100205.00;;;11.50;43.38
54512;BME280;40419;47.438;19.026;2023-03-18T12:55:19;100190.13;;;11.40;44.77
54512;BME280;40419;47.438;19.026;2023-03-18T12:57:58;100200.22;;;11.52;45.20
54512;BME280;40419;47.438;19.026;2023-03-18T13:00:31;100191.81;;;11.41;44.97
54512;BME280;40419;47.438;19.026;2023-03-18T13:05:51;100200.75;;;11.41;44.52
54512;BME280;40419;47.438;19.026;2023-03-18T13:17:37;100192.44;;;11.43;44.03
54512;BME280;40419;47.438;19.026;2023-03-18T13:20:27;100193.44;;;11.35;44.88
54512;BME280;40419;47.438;19.026;2023-03-18T13:28:23;100200.34;;;11.38;44.05
54512;BME280;40419;47.438;19.026;2023-03-18T13:44:43;100186.63;;;11.46;44.00
54512;BME280;40419;47.438;19.026;2023-03-18T13:47:17;100182.25;;;11.45;44.09
54512;BME280;40419;47.438;19.026;2023-03-18T13:49:47;100169.38;;;11.60;43.68
54512;BME280;40419;47.438;19.026;2023-03-18T13:52:40;100173.50;;;11.56;44.31
54512;BME280;40419;47.438;19.026;2023-03-18T13:55:26;100170.00;;;11.62;43.29
54512;BME280;40419;47.438;19.026;2023-03-18T13:57:56;100160.63;;;11.65;41.81
54512;BME280;40419;47.438;19.026;2023-03-18T14:00:33;100162.53;;;11.71;41.38
54512;BME280;40419;47.438;19.026;2023-03-18T14:03:30;100164.69;;;11.89;41.53
54512;BME280;40419;47.438;19.026;2023-03-18T14:13:56;100156.28;;;11.77;41.07
54512;BME280;40419;47.438;19.026;2023-03-18T14:21:50;100145.47;;;11.84;42.65
54512;BME280;40419;47.438;19.026;2023-03-18T14:29:42;100133.97;;;11.75;42.27
54512;BME280;40419;47.438;19.026;2023-03-18T14:34:58;100128.94;;;11.72;42.49
54512;BME280;40419;47.438;19.026;2023-03-18T14:37:27;100129.34;;;11.69;42.06
54512;BME280;40419;47.438;19.026;2023-03-18T14:40:12;100126.84;;;11.74;42.21
54512;BME280;40419;47.438;19.026;2023-03-18T14:42:59;100133.97;;;11.75;43.36
54512;BME280;40419;47.438;19.026;2023-03-18T14:45:37;100129.81;;;11.86;44.17
54512;BME280;40419;47.438;19.026;2023-03-18T14:48:17;100131.25;;;11.75;43.96
54512;BME280;40419;47.438;19.026;2023-03-18T14:50:51;100123.56;;;11.92;43.52
54512;BME280;40419;47.438;19.026;2023-03-18T14:53:37;100125.56;;;11.63;44.39
54512;BME280;40419;47.438;19.026;2023-03-18T14:56:04;100124.31;;;11.59;44.29
54512;BME280;40419;47.438;19.026;2023-03-18T14:58:35;100125.78;;;11.62;44.31
54512;BME280;40419;47.438;19.026;2023-03-18T15:01:05;100117.63;;;11.55;44.48
54512;BME280;40419;47.438;19.026;2023-03-18T15:03:31;100117.63;;;11.55;44.36
54512;BME280;40419;47.438;19.026;2023-03-18T15:06:02;100117.59;;;11.48;45.03
54512;BME280;40419;47.438;19.026;2023-03-18T15:08:39;100116.09;;;11.39;44.80
54512;BME280;40419;47.438;19.026;2023-03-18T15:11:15;100120.09;;;11.43;44.73
54512;BME280;40419;47.438;19.026;2023-03-18T15:13:52;100125.72;;;11.42;45.40